Time;durP1;ratioP1;P1;durP2;ratioP2;P2;SDS_P1;SDS_P2;PMS_P1;PMS_P2;Temp;Humidity;BMP_temperature;BMP_pressure;BME280_temperature;BME280_humidity;BME280_pressure;Samples;Min_cycle;Max_cycle;Signal;HPM_P1;HPM_P2
2021/07/18 00:02:03;;;;;;;11.65;5.97;;;16.70;99.90;;;;;;5027101;28;20064;-67
2021/07/18 00:04:29;;;;;;;10.52;6.95;;;16.70;99.90;;;;;;5038270;28;20564;-67
2021/07/18 00:06:54;;;;;;;12.20;7.75;;;16.70;99.90;;;;;;5024118;28;20057;-67
2021/07/18 00:09:20;;;;;;;14.18;8.43;;;16.70;99.90;;;;;;5029278;28;20049;-67
2021/07/18 00:11:46;;;;;;;14.95;8.95;;;16.70;99.90;;;;;;5032598;28;20104;-67
2021/07/18 00:14:12;;;;;;;12.23;7.55;;;16.70;99.90;;;;;;5037593;28;20101;-67
2021/07/18 00:16:38;;;;;;;11.07;7.40;;;16.70;99.90;;;;;;5035655;28;20037;-67
2021/07/18 00:19:05;;;;;;;11.55;7.97;;;16.70;99.90;;;;;;5029914;28;20052;-67
2021/07/18 00:21:30;;;;;;;12.10;7.53;;;16.70;99.90;;;;;;5031204;28;20018;-67
2021/07/18 00:23:57;;;;;;;11.18;6.68;;;16.70;99.90;;;;;;5020554;28;20025;-67
2021/07/18 00:26:23;;;;;;;10.70;6.72;;;16.70;99.90;;;;;;5027175;28;20034;-67
2021/07/18 00:28:49;;;;;;;10.60;6.38;;;16.70;99.90;;;;;;5036711;28;20116;-67
2021/07/18 00:31:14;;;;;;;10.20;6.18;;;16.70;99.90;;;;;;5035604;28;20100;-67
2021/07/18 00:33:40;;;;;;;12.38;6.15;;;16.80;99.90;;;;;;5037242;28;20037;-67
2021/07/18 00:36:05;;;;;;;12.93;6.88;;;16.70;99.90;;;;;;5032273;28;20464;-67
2021/07/18 00:38:31;;;;;;;12.68;7.22;;;16.70;99.90;;;;;;5036995;28;20419;-67
2021/07/18 00:40:57;;;;;;;14.82;7.80;;;16.60;99.90;;;;;;5038027;28;20044;-68
2021/07/18 00:43:22;;;;;;;10.85;7.07;;;16.60;99.90;;;;;;5035973;28;20506;-67
2021/07/18 00:45:54;;;;;;;11.73;7.18;;;16.70;99.90;;;;;;5036583;28;20096;-67
2021/07/18 00:48:19;;;;;;;9.98;6.30;;;16.70;99.90;;;;;;5026929;28;20053;-67
2021/07/18 00:50:45;;;;;;;10.68;6.40;;;16.60;99.90;;;;;;5037327;28;20476;-67
2021/07/18 00:53:11;;;;;;;11.07;6.72;;;16.60;99.90;;;;;;5031720;28;20480;-67
2021/07/18 00:55:40;;;;;;;10.27;6.25;;;16.60;99.90;;;;;;5031470;28;20040;-67
2021/07/18 00:58:06;;;;;;;12.48;5.90;;;16.60;99.90;;;;;;5020856;28;20059;-67
2021/07/18 01:00:32;;;;;;;10.48;6.63;;;16.60;99.90;;;;;;5032141;28;20057;-67
2021/07/18 01:02:58;;;;;;;11.27;5.60;;;16.50;99.90;;;;;;5023514;28;20102;-67
2021/07/18 01:05:24;;;;;;;9.43;5.10;;;16.50;99.90;;;;;;5032437;28;20356;-67
2021/07/18 01:07:51;;;;;;;9.43;6.40;;;16.50;99.90;;;;;;5028123;28;20105;-67
2021/07/18 01:10:16;;;;;;;9.05;5.00;;;16.40;99.90;;;;;;5031753;28;20096;-67
2021/07/18 01:12:42;;;;;;;10.82;5.82;;;16.40;99.90;;;;;;5025360;28;20052;-67
2021/07/18 01:15:08;;;;;;;11.48;6.10;;;16.30;99.90;;;;;;5035262;28;20033;-67
2021/07/18 01:17:36;;;;;;;9.70;5.45;;;16.30;99.90;;;;;;5029500;28;20400;-67
2021/07/18 01:20:04;;;;;;;7.88;5.68;;;16.20;99.90;;;;;;5024459;28;20120;-67
2021/07/18 01:22:30;;;;;;;7.82;5.38;;;16.30;99.90;;;;;;5026141;28;20044;-67
2021/07/18 01:24:56;;;;;;;10.88;6.13;;;16.30;99.90;;;;;;5022924;28;20527;-67
2021/07/18 01:27:22;;;;;;;9.98;6.35;;;16.20;99.90;;;;;;5023507;28;20032;-67
2021/07/18 01:29:47;;;;;;;9.65;6.15;;;16.20;99.90;;;;;;5029463;28;20117;-67
2021/07/18 01:32:13;;;;;;;11.75;5.85;;;16.20;99.90;;;;;;5028281;28;20734;-67
2021/07/18 01:34:39;;;;;;;7.72;5.65;;;16.20;99.90;;;;;;5026450;28;20034;-67
2021/07/18 01:37:04;;;;;;;8.75;5.88;;;16.10;99.90;;;;;;5025723;28;20388;-67
2021/07/18 01:39:30;;;;;;;9.68;6.00;;;16.00;99.90;;;;;;5027187;28;20026;-67
2021/07/18 01:41:58;;;;;;;8.13;5.80;;;16.00;99.90;;;;;;5033414;28;20048;-67
2021/07/18 01:44:24;;;;;;;5.90;3.75;;;16.00;99.90;;;;;;5031530;28;20064;-67
2021/07/18 01:46:51;;;;;;;6.03;4.03;;;15.90;99.90;;;;;;5033101;28;20053;-67
2021/07/18 01:49:16;;;;;;;5.03;3.83;;;15.80;99.90;;;;;;5020332;28;20029;-67
2021/07/18 01:51:42;;;;;;;7.13;3.92;;;15.80;99.90;;;;;;5033226;28;20021;-67
2021/07/18 01:54:09;;;;;;;9.35;4.57;;;15.70;99.90;;;;;;5021969;28;20036;-67
2021/07/18 01:56:35;;;;;;;11.23;4.65;;;15.60;99.90;;;;;;5028602;28;20469;-67
2021/07/18 01:59:01;;;;;;;8.02;5.00;;;15.60;99.90;;;;;;5027776;28;20108;-67
2021/07/18 02:01:32;;;;;;;9.10;5.60;;;15.50;99.90;;;;;;5023304;28;20036;-67
2021/07/18 02:03:59;;;;;;;8.60;5.20;;;15.50;99.90;;;;;;5029941;28;20065;-67
2021/07/18 02:06:26;;;;;;;6.63;5.07;;;15.50;99.90;;;;;;5030850;28;20068;-67
2021/07/18 02:08:56;;;;;;;9.57;5.32;;;15.50;99.90;;;;;;5024499;28;20035;-67
2021/07/18 02:11:22;;;;;;;8.68;5.75;;;15.40;99.90;;;;;;5020773;28;20488;-67
2021/07/18 02:13:49;;;;;;;9.48;5.43;;;15.40;99.90;;;;;;5028659;28;20029;-67
2021/07/18 02:16:15;;;;;;;9.60;5.97;;;15.40;99.90;;;;;;5032651;28;20359;-67
2021/07/18 02:18:42;;;;;;;8.32;5.00;;;15.40;99.90;;;;;;5023954;28;20300;-67
2021/07/18 02:21:08;;;;;;;8.95;6.35;;;15.40;99.90;;;;;;5026992;28;20025;-67
2021/07/18 02:23:34;;;;;;;8.27;6.13;;;15.40;99.90;;;;;;5021609;28;20492;-67
2021/07/18 02:25:59;;;;;;;8.45;4.97;;;15.40;99.90;;;;;;5031349;28;20476;-67
2021/07/18 02:28:25;;;;;;;9.00;5.65;;;15.40;99.90;;;;;;5031129;28;20029;-67
2021/07/18 02:30:51;;;;;;;9.68;5.90;;;15.40;99.90;;;;;;5028727;28;20117;-67
2021/07/18 02:33:17;;;;;;;13.80;6.88;;;15.40;99.90;;;;;;5017337;28;20033;-67
2021/07/18 02:35:42;;;;;;;6.82;5.55;;;15.40;99.90;;;;;;5018119;28;20033;-67
2021/07/18 02:38:08;;;;;;;6.55;4.22;;;15.40;99.90;;;;;;5030194;28;20575;-67
2021/07/18 02:40:33;;;;;;;9.63;5.28;;;15.40;99.90;;;;;;5025495;28;20032;-67
2021/07/18 02:42:59;;;;;;;7.60;5.35;;;15.30;99.90;;;;;;5023394;28;20072;-67
2021/07/18 02:45:25;;;;;;;11.80;6.10;;;15.30;99.90;;;;;;5020424;28;20458;-67
2021/07/18 02:47:52;;;;;;;6.75;5.15;;;15.30;99.90;;;;;;5020880;28;20095;-67
2021/07/18 02:50:22;;;;;;;8.80;5.65;;;15.40;99.90;;;;;;5030780;28;20538;-67
2021/07/18 02:52:47;;;;;;;6.72;5.32;;;15.30;99.90;;;;;;5024845;28;20435;-67
2021/07/18 02:55:14;;;;;;;7.43;4.97;;;15.30;99.90;;;;;;5031867;28;20029;-67
2021/07/18 02:57:40;;;;;;;10.98;5.45;;;15.30;99.90;;;;;;5030994;28;20036;-67
2021/07/18 03:00:12;;;;;;;9.70;6.03;;;15.20;99.90;;;;;;5023876;28;20036;-67
2021/07/18 03:02:39;;;;;;;9.23;5.93;;;15.20;99.90;;;;;;5024382;28;20033;-67
2021/07/18 03:05:05;;;;;;;8.20;5.28;;;15.20;99.90;;;;;;5029975;28;20029;-67
2021/07/18 03:07:32;;;;;;;9.35;5.18;;;15.20;99.90;;;;;;5031551;28;20076;-67
2021/07/18 03:09:57;;;;;;;6.00;3.92;;;15.20;99.90;;;;;;5024817;28;20485;-67
2021/07/18 03:12:23;;;;;;;10.52;5.40;;;15.10;99.90;;;;;;5027387;28;20038;-67
2021/07/18 03:14:48;;;;;;;11.57;5.82;;;15.10;99.90;;;;;;5026279;28;20021;-67
2021/07/18 03:17:14;;;;;;;9.45;5.63;;;15.10;99.90;;;;;;5025933;28;20037;-67
2021/07/18 03:19:39;;;;;;;9.77;5.43;;;15.00;99.90;;;;;;5016619;28;20030;-67
2021/07/18 03:22:05;;;;;;;11.80;6.13;;;15.10;99.90;;;;;;5024789;28;20077;-67
2021/07/18 03:24:30;;;;;;;13.70;6.53;;;15.00;99.90;;;;;;5017721;28;20025;-67
2021/07/18 03:26:56;;;;;;;12.45;6.25;;;15.10;99.90;;;;;;5032020;28;20029;-67
2021/07/18 03:29:21;;;;;;;8.30;4.43;;;15.10;99.90;;;;;;5025329;28;20072;-67
2021/07/18 03:31:47;;;;;;;7.53;4.13;;;15.20;99.90;;;;;;5028582;28;20392;-67
2021/07/18 03:34:12;;;;;;;7.72;4.38;;;15.20;99.90;;;;;;5026572;28;20026;-67
2021/07/18 03:36:38;;;;;;;4.57;3.67;;;15.30;99.90;;;;;;5017292;28;20041;-67
2021/07/18 03:39:04;;;;;;;3.95;3.17;;;15.30;99.90;;;;;;5021213;28;20022;-67
2021/07/18 03:41:30;;;;;;;5.78;3.97;;;15.40;99.90;;;;;;5020137;28;20104;-67
2021/07/18 03:43:55;;;;;;;4.65;2.72;;;15.40;99.90;;;;;;5022106;28;20117;-67
2021/07/18 03:46:21;;;;;;;8.02;4.15;;;15.50;99.90;;;;;;5026356;28;20095;-67
2021/07/18 03:48:46;;;;;;;7.10;3.80;;;15.50;99.90;;;;;;5028343;28;20086;-67
2021/07/18 03:51:12;;;;;;;6.00;3.88;;;15.50;99.90;;;;;;5017509;28;20088;-67
2021/07/18 03:53:38;;;;;;;10.60;4.47;;;15.60;99.90;;;;;;5030461;28;20041;-67
2021/07/18 03:56:03;;;;;;;10.80;5.20;;;15.70;99.90;;;;;;5031877;28;20030;-67
2021/07/18 03:58:29;;;;;;;24.90;7.45;;;15.80;99.90;;;;;;5025934;28;20025;-67
2021/07/18 04:00:54;;;;;;;25.77;8.07;;;15.80;99.90;;;;;;5030456;28;20029;-67
2021/07/18 04:03:20;;;;;;;27.42;9.15;;;15.90;99.90;;;;;;5024899;28;20036;-67
2021/07/18 04:05:45;;;;;;;30.65;9.32;;;16.00;99.90;;;;;;5029624;28;20033;-67
2021/07/18 04:08:11;;;;;;;32.92;9.98;;;16.00;99.90;;;;;;5028529;28;20033;-67
2021/07/18 04:10:36;;;;;;;35.45;12.32;;;16.10;99.90;;;;;;5020295;28;20036;-67
2021/07/18 04:13:02;;;;;;;37.45;12.10;;;16.20;99.90;;;;;;5021443;28;20096;-67
2021/07/18 04:15:27;;;;;;;32.50;12.73;;;16.20;99.90;;;;;;5024517;28;20485;-67
2021/07/18 04:17:53;;;;;;;29.35;12.88;;;16.30;99.90;;;;;;5023214;28;20045;-67
2021/07/18 04:20:18;;;;;;;43.95;12.18;;;16.30;99.90;;;;;;5018770;28;20444;-67
2021/07/18 04:22:44;;;;;;;37.40;12.45;;;16.40;99.90;;;;;;5024581;28;20029;-67
2021/07/18 04:25:10;;;;;;;40.60;12.45;;;16.50;99.90;;;;;;5026688;28;20036;-67
2021/07/18 04:27:36;;;;;;;48.38;13.18;;;16.50;99.90;;;;;;5015121;28;20096;-67
2021/07/18 04:30:06;;;;;;;31.73;13.60;;;16.50;99.90;;;;;;5026250;28;20075;-67
2021/07/18 04:32:32;;;;;;;25.08;12.02;;;16.60;99.90;;;;;;5020905;28;20646;-67
2021/07/18 04:34:57;;;;;;;33.47;13.63;;;16.60;99.90;;;;;;5031544;28;20113;-67
2021/07/18 04:37:23;;;;;;;28.92;11.95;;;16.70;99.90;;;;;;5032407;28;20061;-67
2021/07/18 04:39:48;;;;;;;36.40;12.98;;;16.60;99.90;;;;;;5027720;28;20044;-67
2021/07/18 04:42:14;;;;;;;34.05;11.40;;;16.60;99.90;;;;;;5032180;28;20034;-67
2021/07/18 04:44:39;;;;;;;26.98;12.32;;;16.60;99.90;;;;;;5032716;28;20175;-67
2021/07/18 04:47:05;;;;;;;27.08;11.27;;;16.60;99.90;;;;;;5034979;28;20419;-67
2021/07/18 04:49:30;;;;;;;33.60;11.73;;;16.60;99.90;;;;;;5035781;28;20022;-67
2021/07/18 04:51:57;;;;;;;35.78;11.20;;;16.60;99.90;;;;;;5022866;28;20022;-67
2021/07/18 04:54:22;;;;;;;19.15;10.60;;;16.50;99.90;;;;;;5033785;28;20083;-67
2021/07/18 04:56:48;;;;;;;23.73;10.98;;;16.60;99.90;;;;;;5035226;28;20045;-67
2021/07/18 04:59:14;;;;;;;29.88;10.05;;;16.60;99.90;;;;;;5035756;28;20415;-67
2021/07/18 05:01:39;;;;;;;19.77;9.25;;;16.60;99.90;;;;;;5024476;28;20022;-67
2021/07/18 05:04:05;;;;;;;21.65;8.60;;;16.60;99.90;;;;;;5032132;28;20018;-66
2021/07/18 05:06:31;;;;;;;15.93;8.13;;;16.70;99.90;;;;;;5033680;28;20029;-67
2021/07/18 05:08:56;;;;;;;14.77;6.93;;;16.80;99.90;;;;;;5032741;28;20087;-66
2021/07/18 05:11:22;;;;;;;12.43;7.20;;;16.90;99.90;;;;;;5027447;28;20029;-66
2021/07/18 05:13:52;;;;;;;11.90;7.13;;;16.90;99.90;;;;;;5034731;28;20021;-66
2021/07/18 05:16:19;;;;;;;9.30;5.75;;;17.10;99.90;;;;;;5034719;28;20112;-66
2021/07/18 05:18:44;;;;;;;8.23;5.28;;;17.20;99.90;;;;;;5034805;28;20049;-66
2021/07/18 05:21:10;;;;;;;9.32;5.88;;;17.40;99.90;;;;;;5032573;28;20032;-66
2021/07/18 05:23:36;;;;;;;5.40;4.60;;;17.60;99.90;;;;;;5031022;28;20025;-66
2021/07/18 05:26:01;;;;;;;7.47;5.20;;;17.70;99.90;;;;;;5029070;28;20362;-66
2021/07/18 05:28:27;;;;;;;7.70;5.45;;;18.00;99.90;;;;;;5029250;28;20030;-66
2021/07/18 05:30:52;;;;;;;7.03;5.40;;;18.30;99.90;;;;;;5031646;28;20112;-66
2021/07/18 05:33:18;;;;;;;8.13;6.60;;;18.50;99.90;;;;;;5033128;28;20107;-66
2021/07/18 05:35:43;;;;;;;8.18;6.32;;;18.70;99.90;;;;;;5017353;28;20045;-66
2021/07/18 05:38:09;;;;;;;9.25;5.72;;;18.80;99.90;;;;;;5021662;28;20022;-66
2021/07/18 05:40:35;;;;;;;10.50;5.28;;;19.00;99.90;;;;;;5029687;28;20036;-66
2021/07/18 05:43:02;;;;;;;9.73;6.10;;;19.10;99.90;;;;;;5030535;28;20018;-66
2021/07/18 05:45:27;;;;;;;8.18;5.35;;;19.10;99.90;;;;;;5033478;28;20037;-66
2021/07/18 05:47:53;;;;;;;9.82;6.22;;;19.20;99.90;;;;;;5028932;28;20362;-66
2021/07/18 05:50:19;;;;;;;11.02;7.10;;;19.30;99.90;;;;;;5030036;28;20029;-66
2021/07/18 05:52:44;;;;;;;11.88;6.70;;;19.30;99.90;;;;;;5018521;28;20091;-66
2021/07/18 05:55:11;;;;;;;7.88;6.18;;;19.30;99.90;;;;;;5032763;28;20033;-66
2021/07/18 05:57:37;;;;;;;11.05;6.55;;;19.40;99.90;;;;;;5033336;28;20087;-66
2021/07/18 06:00:06;;;;;;;12.93;6.60;;;19.40;99.90;;;;;;5026946;28;20041;-66
2021/07/18 06:02:31;;;;;;;12.00;7.95;;;19.40;99.90;;;;;;5029326;28;20432;-67
2021/07/18 06:04:57;;;;;;;13.50;7.60;;;19.40;99.90;;;;;;5018933;28;20160;-67
2021/07/18 06:07:23;;;;;;;10.50;7.07;;;19.30;99.90;;;;;;5028703;28;20030;-67
2021/07/18 06:09:48;;;;;;;9.45;6.85;;;19.30;99.90;;;;;;5027177;28;20362;-67
2021/07/18 06:12:14;;;;;;;11.50;6.78;;;19.20;99.90;;;;;;5015706;28;20044;-67
2021/07/18 06:14:39;;;;;;;9.57;6.63;;;19.20;99.90;;;;;;5016007;28;20026;-67
2021/07/18 06:17:06;;;;;;;8.90;5.90;;;19.30;99.90;;;;;;5029478;28;20018;-69
2021/07/18 06:19:32;;;;;;;10.10;6.47;;;19.30;99.90;;;;;;5025471;28;20033;-67
2021/07/18 06:21:57;;;;;;;11.18;7.05;;;19.40;99.90;;;;;;5030308;28;20353;-67
2021/07/18 06:24:23;;;;;;;17.35;7.32;;;19.40;99.90;;;;;;5028934;28;20536;-67
2021/07/18 06:26:48;;;;;;;11.35;7.18;;;19.50;99.90;;;;;;5016328;28;20025;-68
2021/07/18 06:29:14;;;;;;;11.52;7.05;;;19.60;99.90;;;;;;5019298;28;20577;-67
2021/07/18 06:31:40;;;;;;;12.30;6.40;;;19.70;99.90;;;;;;5028084;28;20041;-68
2021/07/18 06:34:05;;;;;;;11.35;6.50;;;19.80;99.90;;;;;;5025907;28;20076;-68
2021/07/18 06:36:31;;;;;;;9.35;5.97;;;19.80;99.80;;;;;;5027941;28;20033;-68
2021/07/18 06:38:57;;;;;;;12.18;6.50;;;19.80;99.90;;;;;;5029075;28;20021;-67
2021/07/18 06:41:23;;;;;;;8.68;4.55;;;19.90;99.80;;;;;;5017431;28;20435;-68
2021/07/18 06:43:49;;;;;;;8.27;5.28;;;20.00;99.40;;;;;;5033174;28;20030;-68
2021/07/18 06:46:14;;;;;;;7.35;4.82;;;20.10;99.20;;;;;;5029055;28;20041;-67
2021/07/18 06:48:40;;;;;;;6.45;4.72;;;20.10;99.00;;;;;;5025124;28;20522;-68
2021/07/18 06:51:05;;;;;;;7.22;5.28;;;20.10;98.90;;;;;;5024962;28;20503;-67
2021/07/18 06:53:31;;;;;;;8.02;4.45;;;20.20;98.70;;;;;;5024222;28;20037;-67
2021/07/18 06:55:56;;;;;;;8.75;4.75;;;20.20;98.70;;;;;;5025348;28;20061;-67
2021/07/18 06:58:22;;;;;;;7.55;4.03;;;20.30;98.60;;;;;;5030858;28;20037;-67
2021/07/18 07:00:47;;;;;;;6.63;3.58;;;20.40;98.50;;;;;;5021598;28;20057;-68
2021/07/18 07:03:13;;;;;;;6.45;3.20;;;20.50;98.30;;;;;;5030829;28;20037;-68
2021/07/18 07:05:38;;;;;;;9.27;4.30;;;20.60;98.10;;;;;;5020669;28;20029;-68
2021/07/18 07:08:04;;;;;;;8.07;4.63;;;20.60;97.90;;;;;;5032554;28;20026;-68
2021/07/18 07:10:30;;;;;;;5.82;3.90;;;20.70;97.80;;;;;;5030060;28;20029;-68
2021/07/18 07:12:55;;;;;;;4.68;3.00;;;20.70;97.60;;;;;;5031570;28;20025;-68
2021/07/18 07:15:21;;;;;;;5.32;2.78;;;20.80;97.60;;;;;;5026128;28;20037;-68
2021/07/18 07:17:46;;;;;;;4.72;2.17;;;20.90;97.40;;;;;;5024813;28;20132;-68
2021/07/18 07:20:13;;;;;;;4.45;2.13;;;21.00;96.90;;;;;;5038668;28;20025;-67
2021/07/18 07:22:39;;;;;;;4.75;2.50;;;21.00;96.70;;;;;;5028023;28;20033;-67
2021/07/18 07:25:06;;;;;;;4.32;1.75;;;21.10;96.50;;;;;;5029199;28;20040;-67
2021/07/18 07:27:32;;;;;;;4.28;2.50;;;21.20;96.40;;;;;;5019233;28;20030;-67
2021/07/18 07:29:58;;;;;;;3.55;2.00;;;21.20;96.20;;;;;;5024439;28;20031;-68
2021/07/18 07:32:24;;;;;;;5.30;1.83;;;21.20;96.10;;;;;;5024695;28;20029;-67
2021/07/18 07:34:49;;;;;;;2.50;1.50;;;21.30;96.10;;;;;;5027043;28;20120;-67
2021/07/18 07:37:15;;;;;;;4.15;2.03;;;21.40;95.80;;;;;;5020020;28;20029;-67
2021/07/18 07:39:40;;;;;;;3.55;1.77;;;21.60;95.70;;;;;;5024265;28;20499;-67
2021/07/18 07:42:06;;;;;;;4.82;2.53;;;21.70;95.40;;;;;;5025105;28;20025;-67
2021/07/18 07:44:32;;;;;;;2.88;1.30;;;21.80;95.10;;;;;;5029857;28;20039;-67
2021/07/18 07:46:58;;;;;;;3.92;1.00;;;21.80;94.60;;;;;;5021548;28;20025;-67
2021/07/18 07:49:24;;;;;;;2.90;0.80;;;21.80;94.50;;;;;;5028932;28;20041;-67
2021/07/18 07:51:49;;;;;;;2.15;0.85;;;21.90;94.20;;;;;;5021934;28;20026;-67
2021/07/18 07:54:15;;;;;;;4.43;1.20;;;22.00;94.00;;;;;;5031349;28;20036;-67
2021/07/18 07:56:40;;;;;;;3.35;0.93;;;22.10;93.80;;;;;;5028174;28;20029;-67
2021/07/18 07:59:06;;;;;;;2.42;0.85;;;22.20;93.60;;;;;;5029624;28;20017;-67
2021/07/18 08:01:32;;;;;;;4.97;1.48;;;22.40;93.40;;;;;;5027324;28;20037;-67
2021/07/18 08:03:57;;;;;;;3.67;1.00;;;22.50;92.90;;;;;;5030626;28;20022;-67
2021/07/18 08:06:23;;;;;;;2.10;0.82;;;22.50;92.80;;;;;;5030891;28;20040;-67
2021/07/18 08:08:48;;;;;;;5.28;1.23;;;22.60;92.60;;;;;;5026302;28;20030;-67
2021/07/18 08:11:14;;;;;;;4.63;1.02;;;22.50;92.60;;;;;;5035107;28;20519;-67
2021/07/18 08:13:40;;;;;;;2.08;0.90;;;22.60;92.40;;;;;;5034165;28;20053;-67
2021/07/18 08:16:07;;;;;;;3.58;1.00;;;22.60;92.60;;;;;;5027239;28;20492;-68
2021/07/18 08:18:32;;;;;;;2.33;0.80;;;22.70;92.20;;;;;;5027630;28;20052;-67
2021/07/18 08:20:58;;;;;;;3.22;0.90;;;22.90;92.00;;;;;;5033834;28;20022;-67
2021/07/18 08:23:24;;;;;;;3.28;0.90;;;23.00;91.90;;;;;;5035534;28;20072;-67
2021/07/18 08:25:49;;;;;;;2.70;0.90;;;23.10;91.80;;;;;;5032374;28;20036;-66
2021/07/18 08:28:15;;;;;;;5.22;1.00;;;23.10;91.70;;;;;;5027150;28;20169;-66
2021/07/18 08:30:42;;;;;;;2.53;1.00;;;23.10;91.80;;;;;;5029651;28;20454;-67
2021/07/18 08:33:08;;;;;;;2.75;0.88;;;23.10;91.30;;;;;;5032705;28;20364;-67
2021/07/18 08:35:33;;;;;;;4.03;0.80;;;23.20;91.30;;;;;;5032992;28;20031;-67
2021/07/18 08:37:59;;;;;;;2.70;0.82;;;23.20;91.20;;;;;;5030074;28;20017;-67
2021/07/18 08:40:24;;;;;;;2.38;1.10;;;23.30;91.20;;;;;;5032012;28;20057;-66
2021/07/18 08:42:51;;;;;;;2.70;1.10;;;23.40;91.10;;;;;;5035829;28;20101;-66
2021/07/18 08:45:16;;;;;;;3.03;0.82;;;23.50;91.10;;;;;;5033527;28;20033;-66
2021/07/18 08:47:42;;;;;;;3.65;1.27;;;23.60;91.00;;;;;;5033159;28;20044;-67
2021/07/18 08:50:09;;;;;;;3.50;0.93;;;23.80;90.60;;;;;;5030666;28;20092;-66
2021/07/18 08:52:35;;;;;;;4.82;1.02;;;23.80;90.60;;;;;;5032465;28;20030;-67
2021/07/18 08:55:02;;;;;;;3.85;1.10;;;23.90;90.30;;;;;;5033933;28;20038;-67
2021/07/18 08:57:28;;;;;;;3.38;1.00;;;23.80;89.80;;;;;;5034750;28;20060;-67
2021/07/18 08:59:54;;;;;;;2.53;1.10;;;23.90;90.10;;;;;;5014673;28;20084;-67
2021/07/18 09:02:21;;;;;;;3.70;1.42;;;23.90;90.10;;;;;;5031191;28;20147;-67
2021/07/18 09:04:47;;;;;;;3.95;1.20;;;24.10;89.70;;;;;;5032667;28;20033;-67
2021/07/18 09:07:17;;;;;;;4.18;1.00;;;24.20;88.40;;;;;;5034748;28;20033;-67
2021/07/18 09:09:43;;;;;;;3.70;1.30;;;24.20;88.30;;;;;;5028639;28;20109;-67
2021/07/18 09:12:10;;;;;;;3.28;1.17;;;24.30;87.40;;;;;;5028825;28;20030;-67
2021/07/18 09:14:38;;;;;;;3.30;0.70;;;24.40;87.10;;;;;;5033793;28;20061;-67
2021/07/18 09:17:08;;;;;;;2.55;1.10;;;24.50;87.30;;;;;;5033411;28;20480;-68
2021/07/18 09:19:35;;;;;;;3.28;1.30;;;24.50;86.20;;;;;;5020817;28;20040;-68
2021/07/18 09:22:04;;;;;;;4.10;1.38;;;24.50;86.40;;;;;;5030620;28;20030;-67
2021/07/18 09:24:36;;;;;;;4.93;1.10;;;24.50;86.10;;;;;;5028713;28;20027;-67
2021/07/18 09:27:20;;;;;;;2.28;1.17;;;24.50;85.80;;;;;;5032586;28;20215;-67
2021/07/18 09:29:46;;;;;;;2.75;1.33;;;24.60;85.30;;;;;;5042063;28;20072;-67
2021/07/18 09:32:17;;;;;;;3.25;0.82;;;24.50;84.80;;;;;;5036350;28;20399;-68
2021/07/18 09:34:49;;;;;;;2.45;1.13;;;24.60;85.40;;;;;;5026892;28;20028;-68
2021/07/18 09:37:16;;;;;;;2.20;0.87;;;24.80;85.10;;;;;;5027638;28;20522;-67
2021/07/18 09:39:48;;;;;;;2.70;0.98;;;24.90;84.80;;;;;;5026239;28;20604;-67
2021/07/18 09:42:35;;;;;;;3.25;0.80;;;25.10;84.00;;;;;;5027514;28;20473;-67
2021/07/18 09:45:11;;;;;;;5.22;1.10;;;25.10;83.90;;;;;;5019982;28;20562;-67
2021/07/18 09:47:58;;;;;;;3.95;1.33;;;25.00;84.10;;;;;;5032655;28;20032;-68
2021/07/18 09:50:28;;;;;;;4.82;1.15;;;25.10;82.60;;;;;;5025343;28;20116;-67
2021/07/18 09:53:22;;;;;;;3.03;1.27;;;25.20;82.10;;;;;;5028403;28;20159;-67
2021/07/18 09:55:55;;;;;;;2.45;0.93;;;25.30;82.10;;;;;;5027529;28;20057;-68
2021/07/18 09:58:21;;;;;;;2.50;1.00;;;25.40;82.80;;;;;;5025214;28;20041;-67
2021/07/18 10:00:47;;;;;;;3.28;0.80;;;25.40;81.70;;;;;;5025855;28;20030;-66
2021/07/18 10:03:14;;;;;;;3.30;0.95;;;25.40;81.10;;;;;;5028632;28;20030;-66
2021/07/18 10:05:40;;;;;;;2.97;0.93;;;25.50;81.20;;;;;;5028523;28;20417;-66
2021/07/18 10:08:08;;;;;;;2.60;0.88;;;25.60;81.40;;;;;;5027919;28;20029;-66
2021/07/18 10:10:39;;;;;;;3.25;0.90;;;25.60;80.80;;;;;;5029232;28;20034;-66
2021/07/18 10:13:06;;;;;;;2.83;0.90;;;25.80;80.90;;;;;;5030773;28;20145;-66
2021/07/18 10:15:32;;;;;;;3.88;0.73;;;25.90;79.50;;;;;;5031070;28;20024;-67
2021/07/18 10:17:58;;;;;;;2.60;0.90;;;26.00;79.20;;;;;;5031019;28;20120;-67
2021/07/18 10:20:25;;;;;;;3.05;1.00;;;26.00;79.50;;;;;;5032654;28;20124;-67
2021/07/18 10:22:55;;;;;;;1.85;0.90;;;26.10;79.00;;;;;;5033243;28;20045;-67
2021/07/18 10:25:23;;;;;;;3.17;1.00;;;26.10;77.90;;;;;;5029579;28;20476;-66
2021/07/18 10:27:48;;;;;;;2.90;0.90;;;26.20;77.10;;;;;;5033928;28;20026;-66
2021/07/18 10:30:18;;;;;;;3.10;1.08;;;26.20;77.20;;;;;;5031155;28;20440;-66
2021/07/18 10:32:44;;;;;;;3.13;0.80;;;26.30;76.90;;;;;;5031702;28;20079;-67
2021/07/18 10:35:11;;;;;;;2.85;0.80;;;26.30;76.80;;;;;;5019556;28;20025;-67
2021/07/18 10:37:41;;;;;;;3.42;1.10;;;26.30;76.30;;;;;;5017551;28;20053;-66
2021/07/18 10:40:12;;;;;;;3.70;1.08;;;26.30;76.40;;;;;;5028692;28;20028;-67
2021/07/18 10:42:38;;;;;;;2.33;0.80;;;26.30;76.80;;;;;;5030126;28;20056;-66
2021/07/18 10:45:24;;;;;;;3.67;0.90;;;26.30;75.80;;;;;;5031272;28;20053;-66
2021/07/18 10:48:06;;;;;;;2.67;0.77;;;26.40;75.60;;;;;;5033030;28;20022;-66
2021/07/18 10:50:57;;;;;;;3.72;1.05;;;26.40;75.40;;;;;;5027879;28;20499;-66
2021/07/18 10:53:25;;;;;;;3.05;0.93;;;26.50;75.30;;;;;;5030038;28;20037;-66
2021/07/18 10:55:54;;;;;;;3.60;0.73;;;26.60;75.00;;;;;;5028687;28;20029;-66
2021/07/18 10:58:40;;;;;;;4.35;0.90;;;26.70;75.30;;;;;;5027550;28;20044;-67
2021/07/18 11:01:26;;;;;;;3.10;0.80;;;26.80;75.10;;;;;;5019335;28;20056;-66
2021/07/18 11:03:52;;;;;;;3.03;0.88;;;26.70;73.60;;;;;;5016631;28;20076;-67
2021/07/18 11:06:19;;;;;;;2.55;0.82;;;26.80;74.20;;;;;;5023618;28;20038;-67
2021/07/18 11:09:12;;;;;;;3.10;0.82;;;26.80;74.30;;;;;;5026895;28;20033;-67
2021/07/18 11:11:55;;;;;;;2.72;0.90;;;26.90;74.20;;;;;;5013701;28;20029;-67
2021/07/18 11:14:28;;;;;;;2.33;0.98;;;26.90;73.20;;;;;;5026486;28;20034;-67
2021/07/18 11:16:59;;;;;;;1.90;0.80;;;26.90;73.20;;;;;;5030571;28;20127;-67
2021/07/18 11:19:39;;;;;;;2.25;0.70;;;27.00;73.80;;;;;;5028730;28;20041;-67
2021/07/18 11:22:07;;;;;;;4.25;1.08;;;27.30;73.10;;;;;;5031051;28;20056;-67
2021/07/18 11:24:53;;;;;;;4.00;1.00;;;27.40;72.10;;;;;;5026910;28;20050;-67
2021/07/18 11:27:27;;;;;;;1.50;0.80;;;27.50;71.80;;;;;;5024578;28;20030;-66
2021/07/18 11:29:53;;;;;;;3.47;0.77;;;27.60;71.10;;;;;;5027553;28;20489;-67
2021/07/18 11:32:20;;;;;;;2.33;0.73;;;27.60;69.80;;;;;;5030890;28;20064;-66
2021/07/18 11:34:46;;;;;;;3.53;1.58;;;27.70;70.80;;;;;;5017578;28;20038;-67
2021/07/18 11:37:14;;;;;;;3.25;0.85;;;27.80;70.00;;;;;;5031405;28;20034;-67
2021/07/18 11:39:42;;;;;;;2.10;1.00;;;27.90;69.20;;;;;;5021320;28;20068;-67
2021/07/18 11:42:14;;;;;;;2.20;0.90;;;27.90;70.00;;;;;;5030810;28;20388;-67
2021/07/18 11:44:42;;;;;;;5.15;1.05;;;28.00;69.10;;;;;;5026852;28;20551;-67
2021/07/18 11:47:11;;;;;;;2.33;0.80;;;28.10;69.30;;;;;;5030291;28;20041;-70
2021/07/18 11:49:40;;;;;;;1.35;0.70;;;28.10;69.20;;;;;;5029442;28;20060;-67
2021/07/18 11:52:07;;;;;;;2.40;0.70;;;28.20;68.30;;;;;;5032926;28;20025;-67
2021/07/18 11:54:33;;;;;;;3.05;0.80;;;28.10;67.60;;;;;;5025067;28;20040;-67
2021/07/18 11:56:59;;;;;;;1.80;0.80;;;28.00;67.00;;;;;;5025183;28;20353;-66
2021/07/18 11:59:28;;;;;;;4.10;0.88;;;27.90;67.70;;;;;;5030755;28;20032;-67
2021/07/18 12:01:55;;;;;;;3.00;0.93;;;27.80;68.80;;;;;;5033875;28;20025;-66
2021/07/18 12:04:23;;;;;;;1.30;0.60;;;27.90;69.10;;;;;;5031655;28;20025;-66
2021/07/18 12:06:54;;;;;;;2.72;0.90;;;27.90;69.40;;;;;;5031089;28;20033;-67
2021/07/18 12:09:22;;;;;;;3.70;0.80;;;28.00;68.40;;;;;;5031814;28;20033;-66
2021/07/18 12:11:49;;;;;;;2.13;1.08;;;27.90;67.90;;;;;;5032162;28;20029;-67
2021/07/18 12:14:16;;;;;;;2.33;0.90;;;28.00;68.40;;;;;;5028398;28;20167;-67
2021/07/18 12:16:46;;;;;;;2.83;1.05;;;28.00;68.00;;;;;;5030547;28;20033;-67
2021/07/18 12:19:13;;;;;;;2.50;0.80;;;27.90;68.20;;;;;;5025275;28;20049;-67
2021/07/18 12:21:44;;;;;;;1.88;0.70;;;27.90;68.40;;;;;;5023343;28;20064;-67
2021/07/18 12:24:24;;;;;;;1.98;0.70;;;27.90;68.70;;;;;;5019622;28;20046;-67
2021/07/18 12:27:02;;;;;;;1.83;0.80;;;28.10;68.80;;;;;;5015864;28;20141;-67
2021/07/18 12:29:52;;;;;;;3.35;1.15;;;28.10;68.00;;;;;;5027133;28;20030;-67
2021/07/18 12:32:24;;;;;;;2.65;1.00;;;28.10;69.00;;;;;;5023793;28;20543;-67
2021/07/18 12:34:52;;;;;;;3.63;0.80;;;28.40;68.70;;;;;;5021727;28;20030;-67
2021/07/18 12:37:23;;;;;;;2.92;1.13;;;28.60;68.00;;;;;;5025141;28;20116;-67
2021/07/18 12:39:55;;;;;;;1.40;0.70;;;28.60;67.20;;;;;;5029113;28;20014;-67
2021/07/18 12:42:26;;;;;;;;;;;28.60;67.40;;;;;;5016696;28;20026;-67
2021/07/18 12:45:14;;;;;;;2.85;0.95;;;28.60;67.50;;;;;;5030763;28;20420;-67